createdAt,value
2018-01-12T00:00:01.863Z,34.60
2018-01-12T00:02:30.679Z,38.80
2018-01-12T00:04:59.163Z,43.43
2018-01-12T00:07:27.476Z,39.93
2018-01-12T00:09:55.977Z,44.47
2018-01-12T00:12:24.283Z,42.80
2018-01-12T00:14:53.079Z,33.70
2018-01-12T00:17:21.431Z,38.87
2018-01-12T00:19:49.742Z,40.27
2018-01-12T00:22:18.047Z,42.33
2018-01-12T00:24:46.795Z,40.70
2018-01-12T00:27:15.104Z,48.43
2018-01-12T00:29:43.409Z,41.27
2018-01-12T00:32:11.752Z,36.50
2018-01-12T00:34:40.124Z,40.23
2018-01-12T00:37:09.346Z,43.17
2018-01-12T00:39:38.335Z,35.73
2018-01-12T00:42:09.076Z,40.93
2018-01-12T00:44:37.401Z,44.40
2018-01-12T00:47:05.734Z,44.40
2018-01-12T00:49:34.060Z,41.27
2018-01-12T00:52:03.028Z,44.07
2018-01-12T00:54:31.331Z,40.40
2018-01-12T00:56:59.751Z,41.10
2018-01-12T00:59:28.807Z,41.00
2018-01-12T01:01:57.119Z,42.00
2018-01-12T01:04:25.423Z,36.90
2018-01-12T01:06:54.101Z,41.73
2018-01-12T01:09:22.408Z,45.60
2018-01-12T01:11:50.720Z,36.97
2018-01-12T01:14:19.084Z,43.43
2018-01-12T01:16:47.387Z,45.00
2018-01-12T01:19:15.691Z,34.70
2018-01-12T01:21:44.031Z,43.27
2018-01-12T01:24:13.992Z,47.03
2018-01-12T01:26:42.304Z,43.37
2018-01-12T01:29:11.260Z,43.60
2018-01-12T01:31:39.571Z,42.83
2018-01-12T01:34:08.884Z,47.00
2018-01-12T01:36:37.215Z,41.33
2018-01-12T01:39:06.091Z,50.13
2018-01-12T01:41:34.403Z,49.23
2018-01-12T01:44:02.716Z,53.77
2018-01-12T01:46:31.731Z,55.27
2018-01-12T01:49:00.811Z,58.80
2018-01-12T01:51:29.119Z,46.70
2018-01-12T01:53:57.831Z,48.37
2018-01-12T01:56:26.131Z,44.27
2018-01-12T01:58:54.432Z,45.67
2018-01-12T02:01:22.940Z,45.10
2018-01-12T02:03:51.275Z,48.97
2018-01-12T02:06:20.321Z,47.17
2018-01-12T02:08:48.683Z,44.77
2018-01-12T02:11:17.030Z,42.50
2018-01-12T02:13:45.387Z,47.67
2018-01-12T02:16:14.206Z,43.57
2018-01-12T02:18:42.567Z,54.73
2018-01-12T02:21:11.283Z,50.83
2018-01-12T02:23:40.255Z,52.40
2018-01-12T02:26:08.998Z,46.10
2018-01-12T02:28:37.307Z,50.40
2018-01-12T02:31:05.664Z,42.87
2018-01-12T02:33:35.682Z,39.60
2018-01-12T02:36:04.029Z,52.50
2018-01-12T02:38:32.727Z,38.87
2018-01-12T02:41:01.031Z,42.57
2018-01-12T02:43:29.345Z,43.40
2018-01-12T02:45:58.080Z,44.83
2018-01-12T02:48:26.387Z,43.47
2018-01-12T02:50:54.687Z,42.33
2018-01-12T02:53:23.292Z,44.20
2018-01-12T02:55:52.304Z,35.30
2018-01-12T02:58:20.611Z,37.97
2018-01-12T03:00:49.588Z,46.97
2018-01-12T03:03:17.895Z,41.13
2018-01-12T03:05:47.192Z,41.53
2018-01-12T03:08:16.061Z,34.67
2018-01-12T03:10:44.423Z,40.50
2018-01-12T03:13:12.727Z,39.90
2018-01-12T03:15:41.888Z,37.57
2018-01-12T03:18:10.195Z,41.27
2018-01-12T03:20:38.499Z,49.43
2018-01-12T03:23:06.860Z,38.00
2018-01-12T03:25:35.880Z,38.83
2018-01-12T03:28:04.187Z,38.40
2018-01-12T03:30:32.537Z,51.83
2018-01-12T03:33:00.851Z,43.50
2018-01-12T03:35:29.647Z,44.53
2018-01-12T03:37:58.659Z,43.43
2018-01-12T03:40:26.965Z,42.57
2018-01-12T03:42:55.276Z,42.33
2018-01-12T03:45:23.685Z,45.33
2018-01-12T03:47:52.045Z,46.23
2018-01-12T03:50:20.350Z,43.47
2018-01-12T03:52:48.960Z,39.27
2018-01-12T03:55:17.263Z,41.80
2018-01-12T03:57:45.676Z,41.87
2018-01-12T04:00:14.116Z,49.17
2018-01-12T04:02:42.488Z,37.90
2018-01-12T04:05:10.799Z,38.87
2018-01-12T04:07:39.319Z,39.13
2018-01-12T04:10:07.626Z,31.87
2018-01-12T04:12:35.932Z,32.53
2018-01-12T04:15:05.400Z,32.87
2018-01-12T04:17:33.907Z,41.93
2018-01-12T04:20:02.213Z,38.63
2018-01-12T04:22:30.559Z,37.53
2018-01-12T04:24:59.975Z,34.00
2018-01-12T04:27:28.468Z,29.00
2018-01-12T04:29:56.821Z,36.20
2018-01-12T04:32:25.128Z,37.80
2018-01-12T04:34:53.433Z,34.70
2018-01-12T04:37:21.779Z,23.87
2018-01-12T04:39:50.143Z,39.50
2018-01-12T04:42:18.416Z,26.13
2018-01-12T04:44:47.028Z,34.10
2018-01-12T04:47:15.335Z,28.80
2018-01-12T04:49:43.648Z,31.10
2018-01-12T04:52:13.147Z,21.97
2018-01-12T04:54:42.219Z,28.53
2018-01-12T04:57:10.533Z,27.33
2018-01-12T04:59:38.892Z,27.30
2018-01-12T05:02:07.438Z,23.40
2018-01-12T05:04:35.947Z,32.60
2018-01-12T05:07:04.296Z,22.10
2018-01-12T05:09:32.604Z,25.00
2018-01-12T05:12:00.924Z,22.90
2018-01-12T05:14:29.276Z,21.67
2018-01-12T05:16:58.356Z,26.60
2018-01-12T05:19:26.666Z,23.90
2018-01-12T05:21:55.176Z,22.27
2018-01-12T05:24:23.496Z,29.83
2018-01-12T05:26:51.800Z,27.07
2018-01-12T05:29:20.822Z,27.83
2018-01-12T05:31:49.124Z,28.50
2018-01-12T05:34:17.086Z,25.13
2018-01-12T05:36:45.896Z,24.83
2018-01-12T05:39:14.477Z,22.87
2018-01-12T05:41:42.775Z,21.93
2018-01-12T05:44:11.844Z,26.90
2018-01-12T05:46:40.334Z,31.10
2018-01-12T05:49:08.975Z,24.30
2018-01-12T05:51:37.276Z,25.23
2018-01-12T05:54:06.271Z,22.40
2018-01-12T05:56:34.572Z,20.50
2018-01-12T05:59:02.876Z,22.03
2018-01-12T06:01:48.769Z,23.90
2018-01-12T06:04:34.509Z,22.83
2018-01-12T06:07:02.896Z,31.43
2018-01-12T06:09:31.196Z,28.47
2018-01-12T06:11:59.508Z,25.17
2018-01-12T06:14:27.866Z,30.10
2018-01-12T06:16:56.172Z,39.00
2018-01-12T06:19:24.512Z,25.97
2018-01-12T06:21:52.205Z,28.27
2018-01-12T06:24:20.563Z,27.47
2018-01-12T06:26:48.973Z,31.03
2018-01-12T06:29:18.165Z,26.63
2018-01-12T06:31:46.467Z,25.10
2018-01-12T06:34:14.803Z,28.30
2018-01-12T06:36:43.143Z,21.53
2018-01-12T06:39:11.443Z,16.03
2018-01-12T06:41:40.398Z,22.17
2018-01-12T06:44:09.567Z,18.73
2018-01-12T06:46:37.867Z,18.87
2018-01-12T06:49:06.215Z,22.00
2018-01-12T06:51:34.909Z,25.27
2018-01-12T06:54:03.212Z,14.90
2018-01-12T06:56:31.673Z,22.50
2018-01-12T06:59:00.028Z,20.30
2018-01-12T07:01:28.340Z,20.20
2018-01-12T07:03:56.643Z,22.23
2018-01-12T07:06:24.985Z,20.73
2018-01-12T07:08:53.301Z,23.90
2018-01-12T07:11:21.730Z,20.60
2018-01-12T07:13:50.095Z,19.40
2018-01-12T07:16:18.701Z,18.83
2018-01-12T07:18:47.203Z,22.43
2018-01-12T07:21:33.511Z,18.80
2018-01-12T07:24:01.911Z,20.97
2018-01-12T07:26:30.987Z,25.20
2018-01-12T07:28:59.347Z,22.03
2018-01-12T07:31:27.653Z,24.23
2018-01-12T07:33:56.487Z,22.83
2018-01-12T07:36:24.911Z,17.33
2018-01-12T07:38:53.212Z,23.60
2018-01-12T07:41:22.287Z,21.97
2018-01-12T07:43:51.752Z,20.43
2018-01-12T07:46:20.518Z,24.87
2018-01-12T07:48:48.820Z,18.13
2018-01-12T07:51:17.268Z,19.13
2018-01-12T07:53:46.336Z,22.40
2018-01-12T07:56:14.651Z,24.60
2018-01-12T07:58:43.420Z,16.23
2018-01-12T08:01:17.416Z,18.10
2018-01-12T08:03:45.763Z,16.00
2018-01-12T08:06:14.059Z,20.33
2018-01-12T08:08:42.363Z,19.20
2018-01-12T08:11:10.803Z,18.90
2018-01-12T08:13:39.119Z,17.67
2018-01-12T08:16:08.188Z,24.60
2018-01-12T08:18:36.914Z,15.40
2018-01-12T08:21:05.527Z,15.93
2018-01-12T08:23:33.823Z,18.40
2018-01-12T08:26:02.431Z,18.30
2018-01-12T08:28:30.858Z,12.97
2018-01-12T08:33:33.549Z,15.97
2018-01-12T08:36:01.851Z,18.07
2018-01-12T08:38:30.194Z,23.27
2018-01-12T08:40:59.706Z,15.73
2018-01-12T08:43:28.318Z,12.40
2018-01-12T08:45:56.623Z,12.80
2018-01-12T08:48:24.963Z,17.73
2018-01-12T08:50:53.380Z,12.87
2018-01-12T08:53:21.686Z,11.63
2018-01-12T08:55:50.038Z,11.13
2018-01-12T08:58:18.335Z,14.67
2018-01-12T09:00:46.650Z,15.80
2018-01-12T09:03:14.987Z,13.33
2018-01-12T09:05:43.340Z,11.17
2018-01-12T09:08:11.820Z,12.63
2018-01-12T09:10:40.623Z,14.80
2018-01-12T09:13:26.490Z,14.40
2018-01-12T09:16:07.119Z,13.50
2018-01-12T09:18:49.923Z,11.27
2018-01-12T09:21:26.146Z,10.03
2018-01-12T09:23:57.163Z,12.77
2018-01-12T09:26:25.515Z,14.50
2018-01-12T09:28:53.958Z,11.07
2018-01-12T09:31:44.351Z,11.30
2018-01-12T09:34:30.111Z,11.07
2018-01-12T09:36:58.467Z,13.90
2018-01-12T09:39:43.303Z,15.13
2018-01-12T09:42:11.639Z,13.50
2018-01-12T09:44:39.935Z,14.10
2018-01-12T09:47:22.862Z,12.00
2018-01-12T09:49:51.163Z,12.63
2018-01-12T09:52:20.443Z,13.90
2018-01-12T09:54:49.492Z,15.73
2018-01-12T09:57:17.799Z,12.93
2018-01-12T09:59:46.494Z,13.93
2018-01-12T10:02:15.111Z,14.17
2018-01-12T10:04:43.410Z,13.60
2018-01-12T10:07:20.067Z,12.90
2018-01-12T10:09:50.698Z,13.80
2018-01-12T10:12:19.555Z,17.93
2018-01-12T10:14:47.855Z,11.53
2018-01-12T10:17:16.167Z,11.07
2018-01-12T10:20:19.004Z,15.77
2018-01-12T10:22:47.308Z,15.30
2018-01-12T10:25:16.057Z,18.10
2018-01-12T10:27:44.408Z,13.63
2018-01-12T10:30:23.242Z,16.97
2018-01-12T10:46:43.259Z,13.00
2018-01-12T10:49:27.783Z,15.90
2018-01-12T10:52:11.638Z,14.47
2018-01-12T10:54:40.031Z,16.97
2018-01-12T10:57:08.788Z,15.90
2018-01-12T10:59:37.603Z,20.40
2018-01-12T11:02:06.666Z,19.97
2018-01-12T11:04:34.967Z,17.33
2018-01-12T11:07:03.308Z,21.07
2018-01-12T11:09:31.611Z,16.27
2018-01-12T11:11:59.918Z,12.57
2018-01-12T11:14:28.253Z,15.13
2018-01-12T11:16:56.555Z,19.50
2018-01-12T11:19:25.625Z,18.40
2018-01-12T11:21:54.401Z,16.27
2018-01-12T11:24:22.972Z,16.40
2018-01-12T11:26:51.272Z,19.40
2018-01-12T11:29:19.939Z,16.67
2018-01-12T11:31:48.251Z,28.67
2018-01-12T11:34:16.863Z,19.53
2018-01-12T11:36:45.219Z,17.23
2018-01-12T11:39:13.522Z,15.93
2018-01-12T11:41:42.483Z,29.47
2018-01-12T11:44:11.588Z,20.80
2018-01-12T11:46:40.012Z,18.97
2018-01-12T11:49:08.331Z,17.50
2018-01-12T11:51:36.703Z,19.87
2018-01-12T11:54:04.999Z,19.40
2018-01-12T11:56:34.075Z,20.20
2018-01-12T11:59:02.507Z,17.00
2018-01-12T12:01:30.807Z,23.27
2018-01-12T12:03:59.114Z,18.70
2018-01-12T12:06:27.755Z,21.03
2018-01-12T12:08:56.066Z,20.73
2018-01-12T12:11:24.366Z,16.70
2018-01-12T12:13:53.480Z,20.10
2018-01-12T12:16:21.852Z,17.60
2018-01-12T12:18:50.159Z,18.37
2018-01-12T12:21:18.512Z,18.37
2018-01-12T12:23:46.829Z,21.33
2018-01-12T12:26:15.903Z,41.10
2018-01-12T12:28:44.249Z,20.17
2018-01-12T12:31:12.592Z,16.60
2018-01-12T12:33:40.903Z,20.20
2018-01-12T12:36:09.255Z,19.80
2018-01-12T12:38:37.555Z,21.20
2018-01-12T12:41:05.854Z,20.10
2018-01-12T12:43:34.191Z,26.70
2018-01-12T12:46:02.496Z,17.60
2018-01-12T12:48:30.799Z,17.07
2018-01-12T12:50:59.405Z,18.20
2018-01-12T12:53:27.712Z,24.03
2018-01-12T12:55:56.003Z,20.63
2018-01-12T12:58:24.991Z,18.07
2018-01-12T13:00:53.303Z,22.13
2018-01-12T13:03:21.605Z,19.13
2018-01-12T13:05:50.059Z,18.30
2018-01-12T13:08:18.979Z,19.77
2018-01-12T13:10:47.283Z,21.00
2018-01-12T13:13:16.305Z,21.03
2018-01-12T13:15:44.615Z,23.20
2018-01-12T13:18:12.968Z,17.40
2018-01-12T13:20:41.547Z,20.10
2018-01-12T13:23:09.856Z,16.77
2018-01-12T13:25:38.156Z,18.50
2018-01-12T13:28:06.515Z,24.40
2018-01-12T13:30:34.815Z,22.00
2018-01-12T13:33:03.119Z,16.30
2018-01-12T13:35:31.720Z,19.77
2018-01-12T13:38:00.778Z,17.07
2018-01-12T13:40:29.079Z,14.77
2018-01-12T13:42:57.767Z,19.67
2018-01-12T13:45:26.075Z,14.60
2018-01-12T13:47:55.146Z,18.80
2018-01-12T13:50:23.991Z,17.47
2018-01-12T13:52:52.402Z,16.30
2018-01-12T13:55:20.707Z,18.00
2018-01-12T13:57:49.056Z,16.77
2018-01-12T14:00:17.965Z,15.73
2018-01-12T14:02:46.703Z,15.07
2018-01-12T14:05:15.042Z,15.10
2018-01-12T14:07:43.699Z,14.00
2018-01-12T14:10:12.005Z,16.53
2018-01-12T14:12:40.351Z,18.80
2018-01-12T14:15:08.657Z,15.80
2018-01-12T14:17:37.042Z,12.67
2018-01-12T14:20:05.647Z,16.93
2018-01-12T14:22:33.947Z,16.77
2018-01-12T14:25:02.248Z,20.40
2018-01-12T14:27:31.559Z,16.60
2018-01-12T14:29:59.855Z,17.43
2018-01-12T14:32:28.162Z,14.53
2018-01-12T14:34:56.552Z,21.57
2018-01-12T14:37:24.863Z,19.20
2018-01-12T14:39:53.292Z,16.40
2018-01-12T14:42:21.650Z,23.10
2018-01-12T14:44:50.035Z,21.17
2018-01-12T14:47:19.081Z,19.10
2018-01-12T14:49:47.600Z,15.93
2018-01-12T14:52:15.923Z,20.00
2018-01-12T14:54:44.300Z,27.80
2018-01-12T14:57:12.767Z,23.97
2018-01-12T14:59:41.079Z,23.23
2018-01-12T15:02:09.370Z,19.53
2018-01-12T15:04:37.716Z,28.23
2018-01-12T15:07:06.141Z,16.10
2018-01-12T15:09:34.403Z,21.13
2018-01-12T15:12:02.850Z,19.20
2018-01-12T15:14:31.152Z,20.60
2018-01-12T15:16:59.460Z,23.33
2018-01-12T15:19:28.671Z,27.53
2018-01-12T15:21:56.975Z,19.40
2018-01-12T15:24:25.276Z,22.97
2018-01-12T15:26:53.731Z,28.93
2018-01-12T15:29:22.035Z,26.30
2018-01-12T15:31:51.019Z,24.27
2018-01-12T15:34:19.391Z,23.90
2018-01-12T15:36:47.691Z,28.63
2018-01-12T15:39:16.032Z,23.03
2018-01-12T15:41:45.239Z,28.90
2018-01-12T15:44:13.553Z,25.27
2018-01-12T15:46:41.854Z,28.33
2018-01-12T15:49:11.435Z,31.23
2018-01-12T15:51:39.743Z,28.80
2018-01-12T15:54:08.052Z,22.80
2018-01-12T15:56:36.385Z,22.00
2018-01-12T15:59:04.699Z,20.60
2018-01-12T16:01:33.007Z,22.77
2018-01-12T16:04:01.356Z,25.70
2018-01-12T16:06:29.659Z,22.30
2018-01-12T16:08:57.965Z,19.40
2018-01-12T16:11:26.655Z,22.53
2018-01-12T16:13:55.623Z,28.93
2018-01-12T16:16:23.964Z,29.43
2018-01-12T16:18:52.603Z,29.50
2018-01-12T16:21:20.906Z,24.17
2018-01-12T16:23:49.285Z,28.87
2018-01-12T16:26:18.238Z,28.37
2018-01-12T16:28:46.542Z,32.63
2018-01-12T16:31:14.993Z,27.00
2018-01-12T16:33:43.300Z,33.13
2018-01-12T16:36:11.603Z,33.67
2018-01-12T16:38:40.230Z,33.60
2018-01-12T16:41:08.547Z,29.13
2018-01-12T16:43:37.008Z,32.27
2018-01-12T16:46:06.835Z,38.67
2018-01-12T16:48:35.903Z,31.63
2018-01-12T16:51:04.215Z,35.33
2018-01-12T16:53:33.426Z,38.20
2018-01-12T16:56:02.235Z,31.63
2018-01-12T16:58:30.574Z,42.20
2018-01-12T17:00:59.300Z,40.97
2018-01-12T17:03:28.156Z,35.63
2018-01-12T17:05:56.472Z,63.03
2018-01-12T17:08:25.310Z,41.17
2018-01-12T17:10:53.927Z,37.20
2018-01-12T17:13:22.247Z,41.90
2018-01-12T17:15:50.551Z,38.47
2018-01-12T17:18:19.268Z,30.77
2018-01-12T17:20:47.579Z,37.40
2018-01-12T17:23:16.259Z,35.73
2018-01-12T17:25:45.539Z,43.03
2018-01-12T17:28:14.879Z,40.03
2018-01-12T17:30:43.187Z,38.53
2018-01-12T17:33:12.100Z,34.27
2018-01-12T17:35:40.958Z,31.23
2018-01-12T17:38:10.104Z,46.27
2018-01-12T17:40:38.414Z,37.80
2018-01-12T17:43:06.592Z,39.63
2018-01-12T17:45:34.831Z,42.90
2018-01-12T17:48:03.304Z,31.17
2018-01-12T17:50:31.606Z,42.33
2018-01-12T17:53:00.223Z,40.87
2018-01-12T17:55:28.547Z,42.93
2018-01-12T17:57:57.266Z,36.03
2018-01-12T18:00:25.576Z,44.20
2018-01-12T18:06:06.736Z,40.83
2018-01-12T18:08:35.116Z,35.73
2018-01-12T18:11:03.966Z,39.13
2018-01-12T18:13:32.316Z,48.17
2018-01-12T18:16:00.628Z,35.87
2018-01-12T18:18:29.027Z,32.07
2018-01-12T18:20:57.339Z,41.40
2018-01-12T18:23:26.055Z,35.10
2018-01-12T18:25:54.360Z,39.00
2018-01-12T18:28:22.738Z,44.30
2018-01-12T18:30:51.087Z,40.80
2018-01-12T18:33:19.400Z,29.97
2018-01-12T18:35:47.760Z,33.70
2018-01-12T18:38:16.063Z,37.40
2018-01-12T18:40:44.372Z,45.13
2018-01-12T18:43:13.058Z,40.17
2018-01-12T18:45:41.192Z,45.03
2018-01-12T18:48:09.387Z,34.87
2018-01-12T18:50:37.583Z,33.07
2018-01-12T18:53:05.979Z,38.13
2018-01-12T18:55:34.764Z,46.40
2018-01-12T18:58:03.835Z,35.10
2018-01-12T19:00:32.157Z,42.07
2018-01-12T19:03:00.607Z,37.90
2018-01-12T19:05:29.996Z,34.47
2018-01-12T19:07:58.316Z,33.73
2018-01-12T19:10:28.028Z,41.50
2018-01-12T19:12:56.371Z,50.50
2018-01-12T19:15:24.679Z,44.60
2018-01-12T19:17:53.427Z,43.53
2018-01-12T19:20:22.612Z,37.90
2018-01-12T19:22:50.927Z,62.10
2018-01-12T19:25:19.884Z,41.70
2018-01-12T19:27:48.195Z,47.57
2018-01-12T19:30:16.524Z,45.17
2018-01-12T19:32:44.939Z,39.47
2018-01-12T19:35:13.243Z,47.77
2018-01-12T19:37:42.308Z,42.07
2018-01-12T19:40:10.838Z,41.30
2018-01-12T19:42:39.051Z,42.00
2018-01-12T19:45:08.853Z,43.60
2018-01-12T19:47:38.575Z,42.77
2018-01-12T19:50:06.960Z,39.53
2018-01-12T19:52:35.479Z,43.90
2018-01-12T19:55:04.458Z,46.10
2018-01-12T19:57:32.829Z,45.27
2018-01-12T20:00:01.487Z,45.40
2018-01-12T20:02:29.935Z,48.80
2018-01-12T20:04:58.563Z,37.90
2018-01-12T20:07:27.239Z,34.70
2018-01-12T20:09:55.756Z,45.80
2018-01-12T20:12:24.931Z,37.80
2018-01-12T20:14:53.319Z,39.30
2018-01-12T20:17:21.947Z,43.20
2018-01-12T20:19:50.251Z,40.70
2018-01-12T20:22:18.700Z,42.50
2018-01-12T20:24:47.011Z,37.17
2018-01-12T20:27:15.318Z,38.23
2018-01-12T20:29:44.468Z,37.80
2018-01-12T20:32:12.813Z,41.00
2018-01-12T20:34:41.119Z,44.83
2018-01-12T20:37:09.607Z,54.83
2018-01-12T20:39:38.296Z,43.10
2018-01-12T20:42:06.708Z,48.87
2018-01-12T20:44:35.058Z,41.03
2018-01-12T20:47:03.507Z,42.77
2018-01-12T20:49:31.821Z,40.50
2018-01-12T20:52:00.304Z,42.67
2018-01-12T20:54:28.675Z,44.00
2018-01-12T20:56:57.040Z,41.50
2018-01-12T20:59:25.955Z,38.30
2018-01-12T21:01:54.356Z,40.10
2018-01-12T21:04:22.656Z,42.37
2018-01-12T21:06:50.963Z,37.80
2018-01-12T21:09:19.699Z,43.20
2018-01-12T21:11:48.000Z,44.90
2018-01-12T21:14:17.371Z,43.60
2018-01-12T21:16:45.721Z,53.90
2018-01-12T21:19:14.595Z,46.87
2018-01-12T21:21:42.920Z,46.03
2018-01-12T21:24:11.232Z,37.73
2018-01-12T21:26:39.848Z,49.87
2018-01-12T21:29:11.407Z,44.83
2018-01-12T21:31:39.878Z,43.57
2018-01-12T21:34:08.648Z,49.20
2018-01-12T21:36:37.900Z,48.43
2018-01-12T21:39:07.323Z,44.30
2018-01-12T21:41:36.591Z,38.07
2018-01-12T21:44:05.352Z,56.10
2018-01-12T21:46:34.296Z,51.33
2018-01-12T21:49:03.388Z,47.40
2018-01-12T21:51:32.624Z,39.80
2018-01-12T21:54:00.927Z,47.27
2018-01-12T21:56:29.985Z,49.27
2018-01-12T21:58:58.347Z,39.23
2018-01-12T22:01:27.935Z,41.80
2018-01-12T22:03:56.450Z,39.20
2018-01-12T22:06:24.751Z,40.87
2018-01-12T22:08:53.104Z,39.93
2018-01-12T22:11:22.445Z,40.67
2018-01-12T22:13:50.751Z,40.73
2018-01-12T22:16:19.339Z,51.17
2018-01-12T22:18:48.331Z,50.43
2018-01-12T22:21:16.635Z,56.10
2018-01-12T22:23:44.986Z,46.40
2018-01-12T22:26:13.324Z,40.13
2018-01-12T22:28:41.675Z,39.70
2018-01-12T22:31:10.001Z,43.93
2018-01-12T22:33:38.348Z,36.90
2018-01-12T22:36:06.648Z,44.87
2018-01-12T22:38:34.950Z,43.97
2018-01-12T22:41:03.322Z,45.43
2018-01-12T22:43:31.632Z,46.10
2018-01-12T22:45:59.945Z,46.30
2018-01-12T22:48:29.287Z,39.43
2018-01-12T22:50:57.591Z,42.43
2018-01-12T22:53:25.900Z,46.30
2018-01-12T22:55:54.255Z,45.53
2018-01-12T22:58:22.557Z,46.20
2018-01-12T23:00:50.905Z,46.10
2018-01-12T23:03:19.288Z,37.47
2018-01-12T23:05:48.355Z,35.67
2018-01-12T23:08:16.659Z,33.37
2018-01-12T23:10:45.832Z,34.10
2018-01-12T23:13:14.135Z,46.37
2018-01-12T23:15:42.442Z,38.83
2018-01-12T23:18:10.796Z,39.87
2018-01-12T23:20:39.107Z,40.47
2018-01-12T23:23:07.453Z,45.17
2018-01-12T23:25:36.116Z,38.60
2018-01-12T23:28:04.435Z,43.53
2018-01-12T23:30:32.749Z,39.20
2018-01-12T23:33:01.142Z,53.30
2018-01-12T23:35:29.498Z,41.07
2018-01-12T23:37:57.808Z,43.50
2018-01-12T23:40:27.043Z,34.70
2018-01-12T23:42:55.351Z,42.77
2018-01-12T23:45:23.663Z,40.83
2018-01-12T23:47:52.819Z,46.33
2018-01-12T23:50:21.177Z,39.07
2018-01-12T23:52:49.529Z,44.50
2018-01-12T23:55:17.894Z,38.30
2018-01-12T23:57:46.195Z,41.60
